createdAt,value
2023-05-17T00:01:59.526Z,9.50
2023-05-17T00:04:27.700Z,9.70
2023-05-17T00:06:55.701Z,9.20
2023-05-17T00:09:23.687Z,11.00
2023-05-17T00:11:51.765Z,11.60
2023-05-17T00:14:19.922Z,11.40
2023-05-17T00:16:47.950Z,11.40
2023-05-17T00:19:17.048Z,12.30
2023-05-17T00:21:45.365Z,11.50
2023-05-17T00:24:13.475Z,11.60
2023-05-17T00:26:41.412Z,11.80
2023-05-17T00:29:09.375Z,11.70
2023-05-17T00:31:37.251Z,12.50
2023-05-17T00:34:05.227Z,11.10
2023-05-17T00:36:34.129Z,11.90
2023-05-17T00:39:03.226Z,11.60
2023-05-17T00:41:31.246Z,11.80
2023-05-17T00:43:59.247Z,13.00
2023-05-17T00:46:27.656Z,11.70
2023-05-17T00:48:56.246Z,11.80
2023-05-17T00:51:24.293Z,12.00
2023-05-17T00:53:53.108Z,13.30
2023-05-17T00:56:21.213Z,13.00
2023-05-17T00:58:50.120Z,13.00
2023-05-17T01:01:18.568Z,14.30
2023-05-17T01:03:46.909Z,14.30
2023-05-17T01:06:15.647Z,12.90
2023-05-17T01:08:44.652Z,13.20
2023-05-17T01:11:39.589Z,14.40
2023-05-17T01:14:16.710Z,13.60
2023-05-17T01:16:52.438Z,14.00
2023-05-17T01:19:50.148Z,13.60
2023-05-17T01:22:32.042Z,14.50
2023-05-17T01:25:29.731Z,14.70
2023-05-17T01:28:01.892Z,13.70
2023-05-17T01:30:31.477Z,13.70
2023-05-17T01:33:01.063Z,15.10
2023-05-17T01:35:29.552Z,14.40
2023-05-17T01:37:58.675Z,13.60
2023-05-17T01:40:26.810Z,13.60
2023-05-17T01:43:02.051Z,13.60
2023-05-17T01:46:07.572Z,14.10
2023-05-17T01:48:40.946Z,13.20
2023-05-17T01:51:11.832Z,14.40
2023-05-17T01:53:48.078Z,14.00
2023-05-17T01:56:21.810Z,14.00
2023-05-17T01:58:53.038Z,14.80
2023-05-17T02:01:23.006Z,12.40
2023-05-17T02:03:51.476Z,14.00
2023-05-17T02:06:19.490Z,14.30
2023-05-17T02:08:47.648Z,14.60
2023-05-17T02:11:16.892Z,14.40
2023-05-17T02:13:45.262Z,15.10
2023-05-17T02:16:13.734Z,15.20
2023-05-17T02:18:41.952Z,15.40
2023-05-17T02:21:10.054Z,17.20
2023-05-17T02:23:38.114Z,14.70
2023-05-17T02:26:06.566Z,14.50
2023-05-17T02:28:35.537Z,15.10
2023-05-17T02:31:04.553Z,14.70
2023-05-17T02:33:32.705Z,15.10
2023-05-17T02:36:00.884Z,15.70
2023-05-17T02:38:29.024Z,14.30
2023-05-17T02:40:57.077Z,14.00
2023-05-17T02:43:25.687Z,14.50
2023-05-17T02:45:54.567Z,14.20
2023-05-17T02:48:22.595Z,14.40
2023-05-17T02:50:51.256Z,14.90
2023-05-17T02:53:20.168Z,15.10
2023-05-17T02:55:48.227Z,15.20
2023-05-17T02:58:16.343Z,15.40
2023-05-17T03:00:47.342Z,14.60
2023-05-17T03:05:46.295Z,14.40
2023-05-17T03:08:14.825Z,14.20
2023-05-17T03:10:43.160Z,13.80
2023-05-17T03:13:11.451Z,14.60
2023-05-17T03:15:41.246Z,14.50
2023-05-17T03:18:09.702Z,14.90
2023-05-17T03:20:40.040Z,14.40
2023-05-17T03:23:08.159Z,14.70
2023-05-17T03:25:43.248Z,14.40
2023-05-17T03:28:11.337Z,14.70
2023-05-17T03:30:39.546Z,14.30
2023-05-17T03:33:08.237Z,14.60
2023-05-17T03:35:36.246Z,14.00
2023-05-17T03:38:04.462Z,14.80
2023-05-17T03:40:32.478Z,14.50
2023-05-17T03:43:01.472Z,14.00
2023-05-17T03:45:31.211Z,15.10
2023-05-17T03:47:59.628Z,15.10
2023-05-17T03:50:29.908Z,15.80
2023-05-17T03:52:58.107Z,16.40
2023-05-17T03:55:28.835Z,16.10
2023-05-17T03:57:57.163Z,16.30
2023-05-17T04:05:09.858Z,14.20
2023-05-17T04:07:38.171Z,13.30
2023-05-17T04:10:06.831Z,15.30
2023-05-17T04:12:35.528Z,14.90
2023-05-17T04:15:04.993Z,14.90
2023-05-17T04:17:33.787Z,16.20
2023-05-17T04:20:02.440Z,16.20
2023-05-17T04:22:30.688Z,16.50
2023-05-17T04:24:58.825Z,15.40
2023-05-17T04:27:27.888Z,16.10
2023-05-17T04:29:56.238Z,13.30
2023-05-17T04:34:36.581Z,14.40
2023-05-17T04:37:05.929Z,14.30
2023-05-17T04:39:34.538Z,15.40
2023-05-17T04:42:03.913Z,15.00
2023-05-17T04:44:33.609Z,13.30
2023-05-17T04:47:01.546Z,13.80
2023-05-17T04:49:29.771Z,13.60
2023-05-17T04:51:57.911Z,13.10
2023-05-17T04:54:26.401Z,12.30
2023-05-17T04:56:54.581Z,12.70
2023-05-17T04:59:40.047Z,12.80
2023-05-17T05:02:08.186Z,12.60
2023-05-17T05:04:36.294Z,12.70
2023-05-17T05:07:05.843Z,13.00
2023-05-17T05:09:34.200Z,13.00
2023-05-17T05:12:02.306Z,12.50
2023-05-17T05:14:31.963Z,11.10
2023-05-17T05:17:00.916Z,11.90
2023-05-17T05:19:29.759Z,9.90
2023-05-17T05:21:59.070Z,9.10
2023-05-17T05:24:27.373Z,8.10
2023-05-17T05:26:55.705Z,7.90
2023-05-17T05:29:25.881Z,7.50
2023-05-17T05:31:54.104Z,6.80
2023-05-17T05:34:22.512Z,5.10
2023-05-17T05:36:50.625Z,7.80
2023-05-17T05:39:18.824Z,7.10
2023-05-17T05:41:47.478Z,7.70
2023-05-17T05:44:15.625Z,8.40
2023-05-17T05:46:43.646Z,7.70
2023-05-17T05:49:11.773Z,7.60
2023-05-17T05:51:39.971Z,7.80
2023-05-17T05:54:08.048Z,7.00
2023-05-17T05:56:36.119Z,7.00
2023-05-17T05:59:04.402Z,6.60
2023-05-17T06:01:34.196Z,5.90
2023-05-17T06:04:02.280Z,6.10
2023-05-17T06:06:30.363Z,5.70
2023-05-17T06:08:59.795Z,5.80
2023-05-17T06:11:28.263Z,6.00
2023-05-17T06:13:57.262Z,5.70
2023-05-17T06:16:25.463Z,5.40
2023-05-17T06:18:53.598Z,5.20
2023-05-17T06:21:21.929Z,5.20
2023-05-17T06:23:50.394Z,5.90
2023-05-17T06:26:18.551Z,5.70
2023-05-17T06:28:46.523Z,5.40
2023-05-17T06:31:14.580Z,5.50
2023-05-17T06:33:42.908Z,5.60
2023-05-17T06:36:10.961Z,5.70
2023-05-17T06:38:38.897Z,5.90
2023-05-17T06:41:07.216Z,5.90
2023-05-17T06:43:36.490Z,6.40
2023-05-17T06:46:05.725Z,6.00
2023-05-17T06:48:33.952Z,5.90
2023-05-17T06:51:02.297Z,6.40
2023-05-17T06:53:31.131Z,5.70
2023-05-17T06:55:59.315Z,5.70
2023-05-17T06:58:27.251Z,5.50
2023-05-17T07:00:55.338Z,5.60
2023-05-17T07:03:23.376Z,6.50
2023-05-17T07:05:51.363Z,6.10
2023-05-17T07:08:19.432Z,6.10
2023-05-17T07:10:47.557Z,5.20
2023-05-17T07:13:16.040Z,5.90
2023-05-17T07:15:44.578Z,5.80
2023-05-17T07:18:12.713Z,5.80
2023-05-17T07:20:40.760Z,5.60
2023-05-17T07:23:09.038Z,5.60
2023-05-17T07:25:40.619Z,5.50
2023-05-17T07:28:08.700Z,6.10
2023-05-17T07:30:37.013Z,5.40
2023-05-17T07:33:05.012Z,5.20
2023-05-17T07:35:32.982Z,5.50
2023-05-17T07:38:03.637Z,5.90
2023-05-17T07:40:31.600Z,5.70
2023-05-17T07:43:01.859Z,5.80
2023-05-17T07:45:30.879Z,5.40
2023-05-17T07:47:59.145Z,5.20
2023-05-17T07:50:27.860Z,5.30
2023-05-17T07:52:55.814Z,4.80
2023-05-17T07:55:23.819Z,5.10
2023-05-17T07:57:52.723Z,5.00
2023-05-17T08:00:21.462Z,4.20
2023-05-17T08:02:49.526Z,4.20
2023-05-17T08:05:18.918Z,4.60
2023-05-17T08:07:47.085Z,4.10
2023-05-17T08:10:15.272Z,4.40
2023-05-17T08:12:43.788Z,4.60
2023-05-17T08:15:12.280Z,4.40
2023-05-17T08:17:40.316Z,4.30
2023-05-17T08:20:08.963Z,4.40
2023-05-17T08:22:37.271Z,4.40
2023-05-17T08:25:06.728Z,4.00
2023-05-17T08:27:39.859Z,3.20
2023-05-17T08:30:11.917Z,4.10
2023-05-17T08:32:43.012Z,4.20
2023-05-17T08:35:11.363Z,4.40
2023-05-17T08:37:39.537Z,5.00
2023-05-17T08:40:08.292Z,5.10
2023-05-17T08:42:37.275Z,5.40
2023-05-17T08:45:08.558Z,5.10
2023-05-17T08:47:37.933Z,5.70
2023-05-17T08:50:08.284Z,5.70
2023-05-17T08:52:37.759Z,6.40
2023-05-17T08:55:08.341Z,6.30
2023-05-17T08:57:39.396Z,6.40
2023-05-17T09:00:14.893Z,6.80
2023-05-17T09:02:43.237Z,9.00
2023-05-17T09:05:13.608Z,7.70
2023-05-17T09:07:43.093Z,7.50
2023-05-17T09:10:11.359Z,8.40
2023-05-17T09:12:39.734Z,7.10
2023-05-17T09:15:16.493Z,6.70
2023-05-17T09:17:52.491Z,8.10
2023-05-17T09:20:24.954Z,7.80
2023-05-17T09:22:53.072Z,9.50
2023-05-17T09:25:24.171Z,8.80
2023-05-17T09:27:57.081Z,7.80
2023-05-17T09:30:32.181Z,8.70
2023-05-17T09:33:08.005Z,9.70
2023-05-17T09:35:37.711Z,9.70
2023-05-17T09:38:11.392Z,8.90
2023-05-17T09:40:41.437Z,9.70
2023-05-17T09:43:10.783Z,8.80
2023-05-17T09:45:38.911Z,9.20
2023-05-17T09:48:14.575Z,7.80
2023-05-17T09:50:50.789Z,7.80
2023-05-17T09:53:30.405Z,8.50
2023-05-17T09:56:03.239Z,8.30
2023-05-17T09:58:37.279Z,7.50
2023-05-17T10:01:07.475Z,7.80
2023-05-17T10:03:37.282Z,8.20
2023-05-17T10:06:13.309Z,8.80
2023-05-17T10:08:53.157Z,8.90
2023-05-17T10:11:34.080Z,9.50
2023-05-17T10:14:12.244Z,9.70
2023-05-17T10:16:41.469Z,9.60
2023-05-17T10:19:11.761Z,10.10
2023-05-17T10:22:21.939Z,8.50
2023-05-17T10:24:52.209Z,8.80
2023-05-17T10:27:20.991Z,8.20
2023-05-17T10:29:50.683Z,8.90
2023-05-17T10:32:23.342Z,8.30
2023-05-17T10:35:05.769Z,7.20
2023-05-17T10:37:39.983Z,7.00
2023-05-17T10:40:17.605Z,7.20
2023-05-17T10:42:53.798Z,6.70
2023-05-17T10:45:23.956Z,6.80
2023-05-17T10:47:53.149Z,5.60
2023-05-17T10:50:27.067Z,5.40
2023-05-17T10:52:59.102Z,4.90
2023-05-17T10:55:42.183Z,4.70
2023-05-17T10:58:17.862Z,4.00
2023-05-17T11:04:38.940Z,4.60
2023-05-17T11:07:17.107Z,4.30
2023-05-17T11:09:49.708Z,4.30
2023-05-17T11:12:30.150Z,4.20
2023-05-17T11:14:59.171Z,4.90
2023-05-17T11:17:28.808Z,4.10
2023-05-17T11:20:06.940Z,4.60
2023-05-17T11:23:08.321Z,4.10
2023-05-17T11:25:38.270Z,4.40
2023-05-17T11:28:17.993Z,4.60
2023-05-17T11:30:52.166Z,4.70
2023-05-17T11:33:32.802Z,4.40
2023-05-17T11:36:07.576Z,4.80
2023-05-17T11:38:37.169Z,5.20
2023-05-17T11:43:54.674Z,4.70
2023-05-17T11:46:24.754Z,4.90
2023-05-17T11:48:54.633Z,4.70
2023-05-17T11:51:25.142Z,5.50
2023-05-17T11:53:55.672Z,5.30
2023-05-17T11:56:35.677Z,6.00
2023-05-17T11:59:11.012Z,5.80
2023-05-17T12:01:43.532Z,6.00
2023-05-17T12:04:11.788Z,6.10
2023-05-17T12:06:40.842Z,6.50
2023-05-17T12:09:11.394Z,6.20
2023-05-17T12:11:43.358Z,6.30
2023-05-17T12:14:17.379Z,6.10
2023-05-17T12:16:50.853Z,6.40
2023-05-17T12:19:23.746Z,6.70
2023-05-17T12:21:51.922Z,7.00
2023-05-17T12:24:19.973Z,6.90
2023-05-17T12:26:48.490Z,7.30
2023-05-17T12:29:23.001Z,7.70
2023-05-17T12:31:53.198Z,6.40
2023-05-17T12:34:22.287Z,6.60
2023-05-17T12:36:51.473Z,6.60
2023-05-17T12:39:24.257Z,7.10
2023-05-17T12:41:53.732Z,6.70
2023-05-17T12:44:22.150Z,6.10
2023-05-17T12:46:53.890Z,5.70
2023-05-17T12:51:50.594Z,6.40
2023-05-17T12:54:24.425Z,6.20
2023-05-17T12:56:52.576Z,5.90
2023-05-17T12:59:21.512Z,6.70
2023-05-17T13:01:52.079Z,6.20
2023-05-17T13:04:21.318Z,6.50
2023-05-17T13:06:54.715Z,5.80
2023-05-17T13:09:24.252Z,6.40
2023-05-17T13:12:00.915Z,6.40
2023-05-17T13:14:47.397Z,6.10
2023-05-17T13:17:47.133Z,6.00
2023-05-17T13:20:16.110Z,6.60
2023-05-17T13:22:48.001Z,6.50
2023-05-17T13:25:16.299Z,6.00
2023-05-17T13:27:48.740Z,5.90
2023-05-17T13:30:16.977Z,4.90
2023-05-17T13:32:45.272Z,5.30
2023-05-17T13:35:13.423Z,5.50
2023-05-17T13:37:41.433Z,5.10
2023-05-17T13:40:09.780Z,4.90
2023-05-17T13:42:37.858Z,4.50
2023-05-17T13:45:09.233Z,4.90
2023-05-17T13:47:37.545Z,4.90
2023-05-17T13:50:06.378Z,4.80
2023-05-17T13:52:34.477Z,5.10
2023-05-17T13:55:02.660Z,5.80
2023-05-17T13:57:30.736Z,5.40
2023-05-17T13:59:58.960Z,5.20
2023-05-17T14:02:26.924Z,5.10
2023-05-17T14:04:55.493Z,5.10
2023-05-17T14:07:23.753Z,4.70
2023-05-17T14:09:51.709Z,4.80
2023-05-17T14:12:19.979Z,4.60
2023-05-17T14:14:48.503Z,4.90
2023-05-17T14:17:17.570Z,5.70
2023-05-17T14:19:45.936Z,5.10
2023-05-17T14:22:13.959Z,4.70
2023-05-17T14:24:42.158Z,4.50
2023-05-17T14:27:10.235Z,5.50
2023-05-17T14:29:38.575Z,5.10
2023-05-17T14:32:07.269Z,5.20
2023-05-17T14:34:35.377Z,5.50
2023-05-17T14:37:04.085Z,5.30
2023-05-17T14:39:32.668Z,5.50
2023-05-17T14:42:01.114Z,6.00
2023-05-17T14:44:30.085Z,5.80
2023-05-17T14:46:58.370Z,6.00
2023-05-17T14:49:27.067Z,6.10
2023-05-17T14:51:56.565Z,5.40
2023-05-17T14:54:26.402Z,5.60
2023-05-17T14:56:54.942Z,4.80
2023-05-17T14:59:23.251Z,4.80
2023-05-17T15:01:51.500Z,5.00
2023-05-17T15:04:20.030Z,4.90
2023-05-17T15:06:48.067Z,4.50
2023-05-17T15:09:18.372Z,5.60
2023-05-17T15:11:46.696Z,5.60
2023-05-17T15:14:21.485Z,4.60
2023-05-17T15:16:49.554Z,4.90
2023-05-17T15:19:18.330Z,4.50
2023-05-17T15:21:46.832Z,4.50
2023-05-17T15:24:17.185Z,4.30
2023-05-17T15:26:46.337Z,3.80
2023-05-17T15:29:14.727Z,3.60
2023-05-17T15:31:42.949Z,4.90
2023-05-17T15:34:11.244Z,3.50
2023-05-17T15:36:39.341Z,3.90
2023-05-17T15:39:07.823Z,3.80
2023-05-17T15:41:37.632Z,3.90
2023-05-17T15:44:09.363Z,3.70
2023-05-17T15:46:37.576Z,3.40
2023-05-17T15:49:05.940Z,3.80
2023-05-17T15:51:34.258Z,3.80
2023-05-17T15:54:02.551Z,4.20
2023-05-17T15:56:30.767Z,3.70
2023-05-17T15:59:01.132Z,4.00
2023-05-17T16:01:30.505Z,3.70
2023-05-17T16:03:58.898Z,3.70
2023-05-17T16:06:27.007Z,3.80
2023-05-17T16:08:55.167Z,3.60
2023-05-17T16:11:23.711Z,4.40
2023-05-17T16:13:52.464Z,3.60
2023-05-17T16:16:20.459Z,3.90
2023-05-17T16:18:51.308Z,4.10
2023-05-17T16:21:20.052Z,3.50
2023-05-17T16:23:48.030Z,3.90
2023-05-17T16:26:16.080Z,4.30
2023-05-17T16:28:44.498Z,4.10
2023-05-17T16:31:12.830Z,4.40
2023-05-17T16:33:41.589Z,4.00
2023-05-17T16:36:10.462Z,3.80
2023-05-17T16:38:38.487Z,4.10
2023-05-17T16:41:06.618Z,4.00
2023-05-17T16:43:34.607Z,4.30
2023-05-17T16:46:03.709Z,4.50
2023-05-17T16:48:31.943Z,4.50
2023-05-17T16:51:01.477Z,4.50
2023-05-17T16:53:30.478Z,4.50
2023-05-17T16:55:58.955Z,5.00
2023-05-17T16:58:27.287Z,5.00
2023-05-17T17:00:55.854Z,5.10
2023-05-17T17:03:24.402Z,5.10
2023-05-17T17:05:52.921Z,4.30
2023-05-17T17:08:21.250Z,4.60
2023-05-17T17:10:50.466Z,5.10
2023-05-17T17:13:19.997Z,4.30
2023-05-17T17:15:48.838Z,4.20
2023-05-17T17:18:17.810Z,5.30
2023-05-17T17:20:46.496Z,6.50
2023-05-17T17:23:14.475Z,6.00
2023-05-17T17:25:42.642Z,5.90
2023-05-17T17:28:11.227Z,5.50
2023-05-17T17:30:39.353Z,5.40
2023-05-17T17:33:07.861Z,5.70
2023-05-17T17:35:36.143Z,6.10
2023-05-17T17:38:04.492Z,6.70
2023-05-17T17:40:32.744Z,6.70
2023-05-17T17:43:01.101Z,6.70
2023-05-17T17:45:29.246Z,6.30
2023-05-17T17:47:57.304Z,6.30
2023-05-17T17:50:25.485Z,7.40
2023-05-17T17:52:53.499Z,6.80
2023-05-17T17:55:21.794Z,5.40
2023-05-17T17:57:51.919Z,6.50
2023-05-17T18:00:20.599Z,5.60
2023-05-17T18:02:48.725Z,6.80
2023-05-17T18:05:20.137Z,6.40
2023-05-17T18:07:48.175Z,6.90
2023-05-17T18:10:16.404Z,6.00
2023-05-17T18:12:44.587Z,7.10
2023-05-17T18:15:12.765Z,6.80
2023-05-17T18:17:41.174Z,6.10
2023-05-17T18:20:09.589Z,6.00
2023-05-17T18:22:37.661Z,6.50
2023-05-17T18:25:06.533Z,5.80
2023-05-17T18:27:35.643Z,5.20
2023-05-17T18:30:05.156Z,5.90
2023-05-17T18:32:33.569Z,5.70
2023-05-17T18:35:02.287Z,5.60
2023-05-17T18:37:30.792Z,6.00
2023-05-17T18:40:02.323Z,5.40
2023-05-17T18:42:30.731Z,5.90
2023-05-17T18:44:59.869Z,6.00
2023-05-17T18:47:28.821Z,9.40
2023-05-17T18:49:57.369Z,10.00
2023-05-17T18:52:25.545Z,10.20
2023-05-17T18:54:53.672Z,11.70
2023-05-17T18:57:21.668Z,11.10
2023-05-17T18:59:49.732Z,10.30
2023-05-17T19:04:38.744Z,9.20
2023-05-17T19:07:07.019Z,9.60
2023-05-17T19:09:35.194Z,9.40
2023-05-17T19:12:03.539Z,8.80
2023-05-17T19:14:32.267Z,9.50
2023-05-17T19:17:00.553Z,9.00
2023-05-17T19:19:31.368Z,8.60
2023-05-17T19:22:00.755Z,7.90
2023-05-17T19:24:28.849Z,7.00
2023-05-17T19:26:56.927Z,7.30
2023-05-17T19:29:27.350Z,8.10
2023-05-17T19:31:56.881Z,7.80
2023-05-17T19:34:24.949Z,6.80
2023-05-17T19:36:52.999Z,7.20
2023-05-17T19:39:21.395Z,7.20
2023-05-17T19:41:50.595Z,7.80
2023-05-17T19:44:18.584Z,7.10
2023-05-17T19:46:47.739Z,7.50
2023-05-17T19:49:16.070Z,6.70
2023-05-17T19:51:46.173Z,7.20
2023-05-17T19:54:14.345Z,7.00
2023-05-17T19:56:42.595Z,5.90
2023-05-17T19:59:10.839Z,6.20
2023-05-17T20:01:38.831Z,5.60
2023-05-17T20:04:07.387Z,6.50
2023-05-17T20:06:35.819Z,5.50
2023-05-17T20:09:04.884Z,7.30
2023-05-17T20:11:33.083Z,5.50
2023-05-17T20:14:01.098Z,6.40
2023-05-17T20:16:30.957Z,5.70
2023-05-17T20:18:59.380Z,5.70
2023-05-17T20:21:27.688Z,5.80
2023-05-17T20:24:03.944Z,5.30
2023-05-17T20:26:36.642Z,5.60
2023-05-17T20:29:07.266Z,6.90
2023-05-17T20:31:36.757Z,5.70
2023-05-17T20:34:05.422Z,5.70
2023-05-17T20:36:33.531Z,6.60
2023-05-17T20:39:01.681Z,9.40
2023-05-17T20:41:30.286Z,6.90
2023-05-17T20:43:58.462Z,7.70
2023-05-17T20:46:29.882Z,6.90
2023-05-17T20:48:58.412Z,6.50
2023-05-17T20:51:27.873Z,6.00
2023-05-17T20:53:56.122Z,6.00
2023-05-17T20:56:24.063Z,6.30
2023-05-17T20:58:52.081Z,6.00
2023-05-17T21:01:20.968Z,5.90
2023-05-17T21:03:51.356Z,5.00
2023-05-17T21:06:19.572Z,4.90
2023-05-17T21:08:47.625Z,4.70
2023-05-17T21:11:20.974Z,5.10
2023-05-17T21:13:50.732Z,5.00
2023-05-17T21:16:18.935Z,5.10
2023-05-17T21:18:47.246Z,5.10
2023-05-17T21:21:15.318Z,5.40
2023-05-17T21:23:43.464Z,5.00
2023-05-17T21:26:11.660Z,4.50
2023-05-17T21:28:39.723Z,4.40
2023-05-17T21:31:07.794Z,5.50
2023-05-17T21:33:36.018Z,4.40
2023-05-17T21:36:04.205Z,5.20
2023-05-17T21:38:32.222Z,4.50
2023-05-17T21:41:00.248Z,3.70
2023-05-17T21:43:28.266Z,5.00
2023-05-17T21:45:56.734Z,4.30
2023-05-17T21:48:24.745Z,4.80
2023-05-17T21:50:52.782Z,4.70
2023-05-17T21:53:21.236Z,5.30
2023-05-17T21:56:01.527Z,5.00
2023-05-17T21:58:31.669Z,5.00
2023-05-17T22:01:00.350Z,4.70
2023-05-17T22:03:28.954Z,4.50
2023-05-17T22:05:57.138Z,3.00
2023-05-17T22:08:25.131Z,3.20
2023-05-17T22:10:55.747Z,4.40
2023-05-17T22:13:26.943Z,2.60
2023-05-17T22:15:57.696Z,4.10
2023-05-17T22:18:27.234Z,2.20
2023-05-17T22:20:59.313Z,4.10
2023-05-17T22:23:27.990Z,3.50
2023-05-17T22:26:00.226Z,3.80
2023-05-17T22:28:28.646Z,3.50
2023-05-17T22:30:57.142Z,3.10
2023-05-17T22:33:25.241Z,3.30
2023-05-17T22:35:54.358Z,3.00
2023-05-17T22:38:25.664Z,3.30
2023-05-17T22:40:54.442Z,3.00
2023-05-17T22:43:22.501Z,2.50
2023-05-17T22:45:50.625Z,3.10
2023-05-17T22:48:20.108Z,2.70
2023-05-17T22:50:48.317Z,3.20
2023-05-17T22:53:18.754Z,2.70
2023-05-17T22:55:49.008Z,1.90
2023-05-17T22:58:17.695Z,2.30
2023-05-17T23:00:45.770Z,2.70
2023-05-17T23:03:14.055Z,1.80
2023-05-17T23:05:43.338Z,2.40
2023-05-17T23:08:15.931Z,2.10
2023-05-17T23:10:49.023Z,2.20
2023-05-17T23:13:18.134Z,2.70
2023-05-17T23:15:47.064Z,2.10
2023-05-17T23:18:16.105Z,1.90
2023-05-17T23:20:46.323Z,2.10
2023-05-17T23:23:15.352Z,2.70
2023-05-17T23:25:48.527Z,2.10
2023-05-17T23:28:18.304Z,2.60
2023-05-17T23:30:48.757Z,1.80
2023-05-17T23:33:19.180Z,3.10
2023-05-17T23:35:47.418Z,2.50
2023-05-17T23:38:15.412Z,2.10
2023-05-17T23:40:43.779Z,2.20
2023-05-17T23:43:11.857Z,2.60
2023-05-17T23:45:39.904Z,2.00
2023-05-17T23:48:09.926Z,1.80
2023-05-17T23:50:40.326Z,2.40
2023-05-17T23:53:09.885Z,2.50
2023-05-17T23:55:38.944Z,2.00
2023-05-17T23:58:07.085Z,2.60
